Time;durP1;ratioP1;P1;durP2;ratioP2;P2;SDS_P1;SDS_P2;PMS_P1;PMS_P2;Temp;Humidity;BMP_temperature;BMP_pressure;BME280_temperature;BME280_humidity;BME280_pressure;Samples;Min_cycle;Max_cycle;Signal;HPM_P1;HPM_P2
2022/10/01 00:00:21;;;;;;;;;;;;;;;10.74;100.00;100031.63;5052553;28;20525;-65
2022/10/01 00:02:46;;;;;;;;;;;;;;;10.73;100.00;100012.34;5053554;28;19920;-66
2022/10/01 00:05:11;;;;;;;;;;;;;;;10.75;100.00;100015.84;5051729;28;19916;-67
2022/10/01 00:07:37;;;;;;;;;;;;;;;10.76;100.00;99985.16;5064670;28;20401;-66
2022/10/01 00:10:03;;;;;;;;;;;;;;;10.72;100.00;99994.81;5064326;28;20300;-66
2022/10/01 00:12:28;;;;;;;;;;;;;;;10.72;100.00;99988.69;5053081;28;20070;-66
2022/10/01 00:14:53;;;;;;;;;;;;;;;10.75;100.00;99979.00;5059553;28;19939;-66
2022/10/01 00:17:19;;;;;;;;;;;;;;;10.74;100.00;99972.00;5061156;28;19920;-65
2022/10/01 00:19:44;;;;;;;;;;;;;;;10.77;100.00;99952.69;5074348;28;19947;-65
2022/10/01 00:22:09;;;;;;;;;;;;;;;10.73;100.00;99954.47;5060208;28;20047;-65
2022/10/01 00:24:36;;;;;;;;;;;;;;;10.72;100.00;99963.22;5056640;28;20016;-66
2022/10/01 00:27:01;;;;;;;;;;;;;;;10.75;100.00;99960.59;5059141;28;19917;-65
2022/10/01 00:29:27;;;;;;;;;;;;;;;10.74;100.00;99950.97;5058210;28;19919;-66
2022/10/01 00:31:52;;;;;;;;;;;;;;;10.76;100.00;99953.59;5059560;28;20536;-65
2022/10/01 00:34:17;;;;;;;;;;;;;;;10.74;100.00;99972.00;5058503;28;19916;-68
2022/10/01 00:36:42;;;;;;;;;;;;;;;10.74;100.00;99950.97;5058209;28;19948;-67
2022/10/01 00:39:09;;;;;;;;;;;;;;;10.77;100.00;99942.16;5064631;28;19936;-67
2022/10/01 00:41:34;;;;;;;;;;;;;;;10.78;100.00;99930.78;5057831;28;19999;-66
2022/10/01 00:44:00;;;;;;;;;;;;;;;10.79;100.00;99932.53;5057484;28;19947;-65
2022/10/01 00:46:26;;;;;;;;;;;;;;;10.77;100.00;99921.13;5063467;28;19934;-65
2022/10/01 00:49:01;;;;;;;;;;;;;;;10.79;100.00;99916.75;5055883;28;20003;-67
2022/10/01 00:51:31;;;;;;;;;;;;;;;10.77;100.00;99919.38;5059665;28;19921;-66
2022/10/01 00:54:01;;;;;;;;;;;;;;;10.81;100.00;99901.81;5054549;28;19912;-67
2022/10/01 00:56:27;;;;;;;;;;;;;;;10.80;100.00;99898.31;5068875;28;19920;-67
2022/10/01 00:58:54;;;;;;;;;;;;;;;10.78;100.00;99897.47;5062140;28;20295;-65
2022/10/01 01:01:20;;;;;;;;;;;;;;;10.81;100.00;99901.81;5049962;28;20389;-66
2022/10/01 01:03:45;;;;;;;;;;;;;;;10.82;100.00;99902.72;5061914;28;20007;-65
2022/10/01 01:06:11;;;;;;;;;;;;;;;10.82;100.00;99887.78;5058834;28;20387;-66
2022/10/01 01:08:36;;;;;;;;;;;;;;;10.84;100.00;99879.88;5059847;28;19912;-66
2022/10/01 01:11:07;;;;;;;;;;;;;;;10.82;100.00;99871.13;5078095;28;19920;-66
2022/10/01 01:13:51;;;;;;;;;;;;;;;10.84;100.00;99872.00;5084611;28;20422;-66
2022/10/01 01:16:18;;;;;;;;;;;;;;;10.86;100.00;99886.06;5081756;28;19912;-67
2022/10/01 01:18:44;;;;;;;;;;;;;;;10.84;100.00;99874.63;5075288;28;20023;-66
2022/10/01 01:21:09;;;;;;;;;;;;;;;10.88;100.00;99873.75;5092840;28;19947;-66
2022/10/01 01:23:43;;;;;;;;;;;;;;;10.87;100.00;99856.22;5076198;28;19912;-65
2022/10/01 01:26:20;;;;;;;;;;;;;;;10.90;100.00;99898.34;5092206;28;20299;-66
2022/10/01 01:28:49;;;;;;;;;;;;;;;10.95;100.00;99883.41;5078965;28;19922;-67
2022/10/01 01:31:17;;;;;;;;;;;;;;;10.93;100.00;99883.44;5074850;28;20007;-66
2022/10/01 01:33:44;;;;;;;;;;;;;;;10.93;100.00;99882.53;5085353;28;20363;-67
2022/10/01 01:36:15;;;;;;;;;;;;;;;10.94;100.00;99868.50;5074616;28;19912;-67
2022/10/01 01:38:43;;;;;;;;;;;;;;;10.95;100.00;99868.50;5083653;28;19919;-67
2022/10/01 01:41:09;;;;;;;;;;;;;;;10.99;100.00;99877.28;5063434;28;19962;-66
2022/10/01 01:43:40;;;;;;;;;;;;;;;10.97;100.00;99873.75;5080824;28;19973;-67
2022/10/01 01:46:06;;;;;;;;;;;;;;;11.03;100.00;99870.22;5092936;28;19912;-65
2022/10/01 01:48:35;;;;;;;;;;;;;;;11.05;100.00;99866.72;5078487;28;19925;-66
2022/10/01 01:51:13;;;;;;;;;;;;;;;11.11;100.00;99872.00;5074085;28;19961;-65
2022/10/01 01:53:38;;;;;;;;;;;;;;;11.14;100.00;99869.34;5075285;28;19915;-65
2022/10/01 01:56:04;;;;;;;;;;;;;;;11.16;100.00;99879.00;5082246;28;19917;-66
2022/10/01 01:58:31;;;;;;;;;;;;;;;11.19;100.00;99863.19;5077256;28;20257;-67
2022/10/01 02:00:56;;;;;;;;;;;;;;;11.24;100.00;99871.97;5077071;28;20045;-67
2022/10/01 02:03:23;;;;;;;;;;;;;;;11.26;100.00;99883.38;5072707;28;20002;-67
2022/10/01 02:06:12;;;;;;;;;;;;;;;11.27;100.00;99871.94;5089492;28;19912;-66
2022/10/01 02:08:39;;;;;;;;;;;;;;;11.27;100.00;99877.22;5063688;28;19916;-67
2022/10/01 02:11:17;;;;;;;;;;;;;;;11.29;100.00;99884.25;5093510;28;20283;-67
2022/10/01 02:13:58;;;;;;;;;;;;;;;11.28;100.00;99881.63;5094260;28;19954;-66
2022/10/01 02:16:44;;;;;;;;;;;;;;;11.34;100.00;99872.81;5071188;28;19920;-67
2022/10/01 02:19:15;;;;;;;;;;;;;;;11.35;100.00;99867.53;5054136;28;19955;-67
2022/10/01 02:22:01;;;;;;;;;;;;;;;11.40;100.00;99863.16;5080738;28;20003;-66
2022/10/01 02:24:42;;;;;;;;;;;;;;;11.43;100.00;99864.91;5062998;28;20363;-66
2022/10/01 02:27:10;;;;;;;;;;;;;;;11.43;100.00;99857.84;5085412;28;19912;-66
2022/10/01 02:29:36;;;;;;;;;;;;;;;11.47;100.00;99856.97;5075707;28;19924;-66
2022/10/01 02:32:01;;;;;;;;;;;;;;;11.47;100.00;99854.34;5076854;28;19916;-66
2022/10/01 02:34:28;;;;;;;;;;;;;;;11.54;100.00;99864.88;5083170;28;19998;-66
2022/10/01 02:36:54;;;;;;;;;;;;;;;11.54;100.00;99855.19;5084276;28;19979;-66
2022/10/01 02:39:22;;;;;;;;;;;;;;;11.57;100.00;99859.59;5076298;28;20410;-66
2022/10/01 02:41:49;;;;;;;;;;;;;;;11.57;100.00;99851.69;5082059;28;19958;-66
2022/10/01 02:44:20;;;;;;;;;;;;;;;11.64;100.00;99848.16;5078247;28;19989;-67
2022/10/01 02:46:54;;;;;;;;;;;;;;;11.66;100.00;99854.28;5078568;28;20405;-67
2022/10/01 02:49:20;;;;;;;;;;;;;;;11.68;100.00;99847.25;5080435;28;19952;-67
2022/10/01 02:51:45;;;;;;;;;;;;;;;11.69;100.00;99851.63;5083140;28;19995;-67
2022/10/01 02:54:17;;;;;;;;;;;;;;;11.74;100.00;99844.59;5075214;28;19920;-66
2022/10/01 02:59:26;;;;;;;;;;;;;;;11.80;100.00;99839.28;5073446;28;20010;-65
2022/10/01 03:01:51;;;;;;;;;;;;;;;11.84;100.00;99853.31;5076202;28;19930;-66
2022/10/01 03:04:18;;;;;;;;;;;;;;;11.87;100.00;99853.31;5075650;28;20544;-66
2022/10/01 03:06:43;;;;;;;;;;;;;;;11.90;100.00;99847.16;5073747;28;20326;-66
2022/10/01 03:09:09;;;;;;;;;;;;;;;11.92;100.00;99845.38;5053795;28;19932;-66
2022/10/01 03:11:34;;;;;;;;;;;;;;;11.96;100.00;99844.50;5064300;28;19917;-66
2022/10/01 03:14:00;;;;;;;;;;;;;;;12.05;100.00;99846.25;5055534;28;19920;-66
2022/10/01 03:16:25;;;;;;;;;;;;;;;12.07;100.00;99845.34;5060572;28;19981;-66
2022/10/01 03:18:50;;;;;;;;;;;;;;;12.09;100.00;99850.63;5047511;28;19912;-64
2022/10/01 03:21:16;;;;;;;;;;;;;;;12.09;100.00;99851.47;5052901;28;20360;-66
2022/10/01 03:23:41;;;;;;;;;;;;;;;12.13;100.00;99855.84;5053466;28;19924;-66
2022/10/01 03:26:06;;;;;;;;;;;;;;;12.19;100.00;99851.44;5035565;28;19919;-66
2022/10/01 03:28:31;;;;;;;;;;;;;;;12.20;100.00;99850.56;5064670;28;20360;-65
2022/10/01 03:31:03;;;;;;;;;;;;;;;12.22;100.00;99848.75;5053509;28;20249;-66
2022/10/01 03:33:29;;;;;;;;;;;;;;;12.23;100.00;99859.28;5051488;28;20400;-65
2022/10/01 03:35:54;;;;;;;;;;;;;;;12.23;100.00;99856.66;5059354;28;19938;-65
2022/10/01 03:38:19;;;;;;;;;;;;;;;12.24;100.00;99847.88;5061332;28;19912;-66
2022/10/01 03:40:45;;;;;;;;;;;;;;;12.31;100.00;99854.84;5055785;28;20275;-66
2022/10/01 03:43:11;;;;;;;;;;;;;;;12.27;100.00;99865.44;5055228;28;19913;-66
2022/10/01 03:45:36;;;;;;;;;;;;;;;12.28;100.00;99875.13;5055729;28;19920;-67
2022/10/01 03:48:01;;;;;;;;;;;;;;;12.28;100.00;99880.38;5055619;28;19916;-66
2022/10/01 03:50:26;;;;;;;;;;;;;;;12.35;100.00;99883.88;5063460;28;19912;-65
2022/10/01 03:52:51;;;;;;;;;;;;;;;12.37;100.00;99882.97;5052809;28;19917;-66
2022/10/01 03:55:18;;;;;;;;;;;;;;;12.42;100.00;99881.16;5057222;28;19943;-65
2022/10/01 03:57:43;;;;;;;;;;;;;;;12.43;100.00;99875.00;5070522;28;20348;-66
2022/10/01 04:00:08;;;;;;;;;;;;;;;12.46;100.00;99887.31;5071224;28;19919;-65
2022/10/01 04:02:34;;;;;;;;;;;;;;;12.47;100.00;99882.00;5065022;28;19919;-66
2022/10/01 04:04:59;;;;;;;;;;;;;;;12.48;100.00;99889.03;5052497;28;20265;-65
2022/10/01 04:07:24;;;;;;;;;;;;;;;12.48;100.00;99886.41;5052872;28;19954;-65
2022/10/01 04:09:50;;;;;;;;;;;;;;;12.50;100.00;99893.44;5059101;28;19921;-65
2022/10/01 04:12:15;;;;;;;;;;;;;;;12.53;100.00;99891.66;5083185;28;19947;-66
2022/10/01 04:14:41;;;;;;;;;;;;;;;12.53;100.00;99891.66;5074885;28;20763;-67
2022/10/01 04:17:07;;;;;;;;;;;;;;;12.54;100.00;99906.59;5072939;28;19959;-64
2022/10/01 04:19:32;;;;;;;;;;;;;;;12.57;100.00;99903.94;5077529;28;19912;-65
2022/10/01 04:21:58;;;;;;;;;;;;;;;12.59;100.00;99922.41;5076238;28;19913;-64
2022/10/01 04:24:23;;;;;;;;;;;;;;;12.59;100.00;99920.66;5081806;28;19957;-66
2022/10/01 04:26:49;;;;;;;;;;;;;;;12.58;100.00;99921.53;5074163;28;20439;-66
2022/10/01 04:29:14;;;;;;;;;;;;;;;12.57;100.00;99930.31;5070838;28;20007;-66
2022/10/01 04:31:40;;;;;;;;;;;;;;;12.56;100.00;99927.69;5072565;28;19947;-65
2022/10/01 04:34:05;;;;;;;;;;;;;;;12.57;100.00;99934.72;5073862;28;19908;-65
2022/10/01 04:36:30;;;;;;;;;;;;;;;12.54;100.00;99940.91;5076169;28;19919;-65
2022/10/01 04:38:56;;;;;;;;;;;;;;;12.52;100.00;99941.78;5071310;28;19946;-66
2022/10/01 04:41:21;;;;;;;;;;;;;;;12.52;100.00;99942.69;5087269;28;19955;-65
2022/10/01 04:43:47;;;;;;;;;;;;;;;12.52;100.00;99941.78;5071843;28;20263;-66
2022/10/01 04:46:13;;;;;;;;;;;;;;;12.46;100.00;99943.56;5081707;28;19991;-65
2022/10/01 04:48:38;;;;;;;;;;;;;;;12.43;100.00;99948.88;5073289;28;19916;-65
2022/10/01 04:51:03;;;;;;;;;;;;;;;12.40;100.00;99954.19;5070793;28;19919;-66
2022/10/01 04:53:28;;;;;;;;;;;;;;;12.39;100.00;99955.06;5080080;28;20307;-65
2022/10/01 04:55:54;;;;;;;;;;;;;;;12.35;100.00;99958.59;5072728;28;19920;-65
2022/10/01 04:58:19;;;;;;;;;;;;;;;12.35;100.00;99961.25;5072163;28;20005;-65
2022/10/01 05:00:44;;;;;;;;;;;;;;;12.33;100.00;99965.66;5075315;28;20009;-65
2022/10/01 05:03:09;;;;;;;;;;;;;;;12.31;100.00;99970.91;5057882;28;19912;-65
2022/10/01 05:05:35;;;;;;;;;;;;;;;12.30;100.00;99973.56;5086330;28;19912;-66
2022/10/01 05:08:00;;;;;;;;;;;;;;;12.25;100.00;99977.97;5075498;28;20006;-65
2022/10/01 05:10:26;;;;;;;;;;;;;;;12.23;100.00;99978.00;5070106;28;19927;-66
2022/10/01 05:12:52;;;;;;;;;;;;;;;12.22;100.00;99980.63;5074081;28;19999;-64
2022/10/01 05:15:17;;;;;;;;;;;;;;;12.23;100.00;99992.94;5080151;28;19912;-64
2022/10/01 05:17:42;;;;;;;;;;;;;;;12.22;100.00;99993.81;5061577;28;19963;-65
2022/10/01 05:20:10;;;;;;;;;;;;;;;12.23;100.00;99999.09;5084058;28;20333;-64
2022/10/01 05:22:36;;;;;;;;;;;;;;;12.23;100.00;99999.09;5076834;28;19919;-66
2022/10/01 05:25:02;;;;;;;;;;;;;;;12.22;100.00;100012.28;5074753;28;20386;-66
2022/10/01 05:27:29;;;;;;;;;;;;;;;12.22;100.00;100012.28;5075905;28;19920;-66
2022/10/01 05:29:55;;;;;;;;;;;;;;;12.18;100.00;100019.34;5056175;28;19920;-65
2022/10/01 05:32:21;;;;;;;;;;;;;;;12.17;100.00;100014.06;5073119;28;19995;-66
2022/10/01 05:34:46;;;;;;;;;;;;;;;12.18;100.00;100016.72;5080080;28;20337;-65
2022/10/01 05:37:11;;;;;;;;;;;;;;;12.21;100.00;100015.81;5081922;28;19923;-65
2022/10/01 05:39:36;;;;;;;;;;;;;;;12.23;100.00;100030.75;5080016;28;19912;-66
2022/10/01 05:42:02;;;;;;;;;;;;;;;12.25;100.00;100028.09;5075037;28;19920;-65
2022/10/01 05:44:27;;;;;;;;;;;;;;;12.27;100.00;100032.47;5062586;28;19912;-66
2022/10/01 05:46:52;;;;;;;;;;;;;;;12.27;100.00;100031.63;5086369;28;19951;-65
2022/10/01 05:49:18;;;;;;;;;;;;;;;12.29;100.00;100035.16;5073456;28;19916;-66
2022/10/01 05:51:43;;;;;;;;;;;;;;;12.27;100.00;100037.75;5078432;28;19999;-65
2022/10/01 05:54:10;;;;;;;;;;;;;;;12.25;100.00;100034.28;5081092;28;20021;-66
2022/10/01 05:56:36;;;;;;;;;;;;;;;12.27;100.00;100036.91;5055342;28;20265;-66
2022/10/01 05:59:01;;;;;;;;;;;;;;;12.23;100.00;100043.94;5062153;28;19920;-66
2022/10/01 06:01:27;;;;;;;;;;;;;;;12.21;100.00;100043.06;5081509;28;19918;-66
2022/10/01 06:03:52;;;;;;;;;;;;;;;12.19;100.00;100044.81;5081086;28;19923;-66
2022/10/01 06:06:21;;;;;;;;;;;;;;;12.21;100.00;100047.44;5090612;28;20385;-65
2022/10/01 06:08:46;;;;;;;;;;;;;;;12.22;100.00;100036.03;5094485;28;20009;-66
2022/10/01 06:11:12;;;;;;;;;;;;;;;12.25;100.00;100036.91;5077453;28;19920;-66
2022/10/01 06:13:37;;;;;;;;;;;;;;;12.28;100.00;100047.44;5074892;28;19959;-65
2022/10/01 06:16:02;;;;;;;;;;;;;;;12.32;100.00;100051.81;5066259;28;19921;-66
2022/10/01 06:18:27;;;;;;;;;;;;;;;12.37;100.00;100057.09;5057629;28;19981;-66
2022/10/01 06:20:52;;;;;;;;;;;;;;;12.43;100.00;100064.09;5053438;28;19912;-66
2022/10/01 06:23:18;;;;;;;;;;;;;;;12.48;100.00;100079.03;5060972;28;19913;-66
2022/10/01 06:25:44;;;;;;;;;;;;;;;12.55;100.00;100079.03;5064980;28;20023;-66
2022/10/01 06:28:10;;;;;;;;;;;;;;;12.62;100.00;100096.59;5054171;28;20376;-66
2022/10/01 06:30:36;;;;;;;;;;;;;;;12.64;100.00;100079.84;5051757;28;19920;-67
2022/10/01 06:33:07;;;;;;;;;;;;;;;12.68;100.00;100075.41;5054379;28;19942;-66
2022/10/01 06:35:33;;;;;;;;;;;;;;;12.65;100.00;100080.72;5052614;28;19920;-66
2022/10/01 06:38:00;;;;;;;;;;;;;;;12.65;100.00;100083.38;5053740;28;19920;-66
2022/10/01 06:40:27;;;;;;;;;;;;;;;12.62;100.00;100078.09;5054595;28;19935;-66
2022/10/01 06:42:52;;;;;;;;;;;;;;;12.59;100.00;100083.41;5054289;28;19913;-66
2022/10/01 06:45:17;;;;;;;;;;;;;;;12.55;100.00;100086.94;5053886;28;19919;-66
2022/10/01 06:47:43;;;;;;;;;;;;;;;12.52;100.00;100085.19;5051804;28;19919;-67
2022/10/01 06:50:09;;;;;;;;;;;;;;;12.51;100.00;100093.09;5066974;28;20275;-66
2022/10/01 06:52:49;;;;;;;;;;;;;;;12.50;100.00;100091.34;5070288;28;19913;-67
2022/10/01 06:55:19;;;;;;;;;;;;;;;12.51;100.00;100088.72;5037012;28;19913;-67
2022/10/01 06:57:44;;;;;;;;;;;;;;;12.56;100.00;100096.59;5074523;28;20249;-67
2022/10/01 07:00:10;;;;;;;;;;;;;;;12.63;100.00;100103.63;5073653;28;19962;-67
2022/10/01 07:02:36;;;;;;;;;;;;;;;12.68;100.00;100095.69;5073778;28;19958;-67
2022/10/01 07:05:01;;;;;;;;;;;;;;;12.72;100.00;100097.41;5058311;28;19939;-67
2022/10/01 07:07:37;;;;;;;;;;;;;;;12.78;100.00;100098.28;5052884;28;19912;-67
2022/10/01 07:10:03;;;;;;;;;;;;;;;12.82;100.00;100102.66;5056966;28;20307;-65
2022/10/01 07:12:29;;;;;;;;;;;;;;;12.88;100.00;100103.50;5072250;28;19916;-66
2022/10/01 07:14:55;;;;;;;;;;;;;;;12.94;100.00;100106.09;5073550;28;19913;-65
2022/10/01 07:17:21;;;;;;;;;;;;;;;13.05;100.00;100111.34;5076914;28;20004;-66
2022/10/01 07:19:46;;;;;;;;;;;;;;;13.16;100.00;100112.16;5077545;28;20386;-66
2022/10/01 07:22:11;;;;;;;;;;;;;;;13.28;100.00;100114.72;5072377;28;19970;-66
2022/10/01 07:24:37;;;;;;;;;;;;;;;13.30;100.00;100117.34;5075243;28;20233;-66
2022/10/01 07:27:02;;;;;;;;;;;;;;;13.32;100.00;100126.13;5071797;28;20316;-66
2022/10/01 07:29:28;;;;;;;;;;;;;;;13.40;100.00;100124.38;5072487;28;19928;-65
2022/10/01 07:31:58;;;;;;;;;;;;;;;13.47;100.00;100131.38;5071916;28;19922;-64
2022/10/01 07:34:24;;;;;;;;;;;;;;;13.62;100.00;100130.38;5071650;28;19969;-67
2022/10/01 07:36:49;;;;;;;;;;;;;;;13.79;100.00;100147.88;5070265;28;19924;-65
2022/10/01 07:39:14;;;;;;;;;;;;;;;13.98;100.00;100141.56;5068161;28;19912;-65
2022/10/01 07:41:41;;;;;;;;;;;;;;;14.05;100.00;100149.44;5073042;28;19912;-64
2022/10/01 07:44:06;;;;;;;;;;;;;;;14.06;100.00;100151.19;5071849;28;19912;-65
2022/10/01 07:46:32;;;;;;;;;;;;;;;14.06;100.00;100156.47;5069748;28;20287;-66
2022/10/01 07:48:57;;;;;;;;;;;;;;;14.12;100.00;100162.59;5070301;28;19952;-65
2022/10/01 07:51:23;;;;;;;;;;;;;;;14.15;100.00;100157.28;5072097;28;19916;-65
2022/10/01 07:53:49;;;;;;;;;;;;;;;14.15;100.00;100165.22;5051626;28;19923;-65
2022/10/01 07:56:15;;;;;;;;;;;;;;;14.12;100.00;100167.88;5070953;28;19959;-66
2022/10/01 07:58:40;;;;;;;;;;;;;;;14.11;100.00;100176.72;5070763;28;19948;-65
2022/10/01 08:01:05;;;;;;;;;;;;;;;14.14;100.00;100176.69;5070257;28;19913;-66
2022/10/01 08:03:30;;;;;;;;;;;;;;;14.18;100.00;100181.97;5072265;28;20364;-66
2022/10/01 08:05:56;;;;;;;;;;;;;;;14.28;100.00;100189.81;5073840;28;19912;-66
2022/10/01 08:08:21;;;;;;;;;;;;;;;14.39;100.00;100197.66;5072834;28;19962;-65
2022/10/01 08:10:48;;;;;;;;;;;;;;;14.57;100.00;100200.97;5072694;28;19942;-65
2022/10/01 08:13:14;;;;;;;;;;;;;;;14.66;100.00;100196.50;5073717;28;20425;-65
2022/10/01 08:15:52;;;;;;;;;;;;;;;14.65;100.00;100210.63;5074752;28;19958;-65
2022/10/01 08:18:17;;;;;;;;;;;;;;;14.67;100.00;100213.28;5078788;28;20360;-65
2022/10/01 08:20:43;;;;;;;;;;;;;;;14.73;100.00;100218.50;5071262;28;19919;-65
2022/10/01 08:23:09;;;;;;;;;;;;;;;14.87;100.00;100220.09;5072877;28;20279;-64
2022/10/01 08:25:35;;;;;;;;;;;;;;;14.93;100.00;100220.91;5076299;28;19957;-65
2022/10/01 08:28:01;;;;;;;;;;;;;;;15.03;100.00;100226.13;5070319;28;19912;-65
2022/10/01 08:30:26;;;;;;;;;;;;;;;15.08;100.00;100230.47;5069946;28;19920;-65
2022/10/01 08:32:56;;;;;;;;;;;;;;;15.09;100.00;100237.53;5052522;28;19912;-64
2022/10/01 08:35:21;;;;;;;;;;;;;;;15.11;100.00;100235.75;5068978;28;20003;-66
2022/10/01 08:37:47;;;;;;;;;;;;;;;15.06;100.00;100248.16;5075555;28;20030;-67
2022/10/01 08:40:12;;;;;;;;;;;;;;;15.05;100.00;100249.06;5075726;28;19950;-67
2022/10/01 08:42:58;;;;;;;;;;;;;;;15.03;100.00;100249.97;5075202;28;19912;-67
2022/10/01 08:45:30;;;;;;;;;;;;;;;14.94;100.00;100245.66;5068751;28;19916;-66
2022/10/01 08:48:10;;;;;;;;;;;;;;;14.89;100.00;100251.00;5077766;28;20452;-66
2022/10/01 08:51:03;;;;;;;;;;;;;;;14.95;100.00;100255.38;5076148;28;19912;-66
2022/10/01 08:53:29;;;;;;;;;;;;;;;15.11;100.00;100261.34;5067916;28;19920;-67
2022/10/01 08:55:55;;;;;;;;;;;;;;;15.31;100.00;100261.13;5075728;28;19912;-67
2022/10/01 08:58:25;;;;;;;;;;;;;;;15.44;100.00;100268.03;5076134;28;19965;-66
2022/10/01 09:00:51;;;;;;;;;;;;;;;15.57;100.00;100270.50;5076221;28;19943;-66
2022/10/01 09:03:17;;;;;;;;;;;;;;;15.78;100.00;100275.53;5075875;28;20049;-69
2022/10/01 09:05:50;;;;;;;;;;;;;;;16.06;100.00;100282.22;5074909;28;20360;-66
2022/10/01 09:08:42;;;;;;;;;;;;;;;16.08;100.00;100276.00;5076195;28;19935;-67
2022/10/01 09:11:13;;;;;;;;;;;;;;;15.85;100.00;100294.91;5075943;28;19920;-67
2022/10/01 09:13:44;;;;;;;;;;;;;;;15.66;100.00;100307.53;5074006;28;19916;-66
2022/10/01 09:16:17;;;;;;;;;;;;;;;15.61;100.00;100304.94;5075945;28;19912;-68
2022/10/01 09:18:48;;;;;;;;;;;;;;;15.64;100.00;100309.31;5075984;28;19951;-68
2022/10/01 09:21:19;;;;;;;;;;;;;;;15.67;100.00;100315.47;5072474;28;21701;-68
2022/10/01 09:23:54;;;;;;;;;;;;;;;15.78;100.00;100311.81;5075998;28;19912;-66
2022/10/01 09:26:19;;;;;;;;;;;;;;;16.06;100.00;100309.66;5063282;28;19913;-66
2022/10/01 09:28:48;;;;;;;;;;;;;;;16.37;100.00;100317.13;5074834;28;19916;-68
2022/10/01 09:31:25;;;;;;;;;;;;;;;16.47;100.00;100332.03;5074938;28;19912;-66
2022/10/01 09:34:01;;;;;;;;;;;;;;;16.40;100.00;100330.41;5075231;28;19912;-66
2022/10/01 09:36:38;;;;;;;;;;;;;;;16.42;100.00;100333.00;5074717;28;19916;-66
2022/10/01 09:39:09;;;;;;;;;;;;;;;16.62;100.00;100333.56;5075290;28;20007;-66
2022/10/01 09:41:35;;;;;;;;;;;;;;;16.58;100.00;100349.59;5075005;28;19912;-66
2022/10/01 09:44:00;;;;;;;;;;;;;;;16.62;100.00;100344.19;5074335;28;19912;-67
2022/10/01 09:46:25;;;;;;;;;;;;;;;16.60;100.00;100358.41;5072373;28;20548;-67
2022/10/01 09:48:56;;;;;;;;;;;;;;;16.55;100.00;100345.19;5074584;28;19956;-66
2022/10/01 09:51:30;;;;;;;;;;;;;;;16.40;100.00;100353.41;5075080;28;19912;-67
2022/10/01 09:54:14;;;;;;;;;;;;;;;16.38;100.00;100366.69;5075311;28;20443;-67
2022/10/01 09:56:49;;;;;;;;;;;;;;;16.47;100.00;100366.56;5075028;28;20399;-67
2022/10/01 09:59:18;;;;;;;;;;;;;;;16.60;100.00;100361.06;5072244;28;20342;-67
2022/10/01 10:01:52;;;;;;;;;;;;;;;16.62;100.00;100376.06;5074233;28;19916;-67
2022/10/01 10:04:19;;;;;;;;;;;;;;;16.76;100.00;100373.19;5073175;28;19913;-67
2022/10/01 10:06:45;;;;;;;;;;;;;;;16.76;100.00;100381.16;5074946;28;19938;-68
2022/10/01 10:09:14;;;;;;;;;;;;;;;16.56;100.00;100376.16;5074043;28;19920;-67
2022/10/01 10:11:41;;;;;;;;;;;;;;;16.40;100.00;100396.78;5075000;28;19923;-68
2022/10/01 10:14:14;;;;;;;;;;;;;;;16.47;100.00;100393.13;5074631;28;19919;-67
2022/10/01 10:16:44;;;;;;;;;;;;;;;16.38;100.00;100398.56;5075114;28;19908;-68
2022/10/01 10:19:24;;;;;;;;;;;;;;;16.22;100.00;100399.69;5073451;28;19912;-68
2022/10/01 10:21:55;;;;;;;;;;;;;;;16.23;100.00;100414.72;5074529;28;19912;-68
2022/10/01 10:24:25;;;;;;;;;;;;;;;16.21;100.00;100416.50;5074497;28;20433;-68
2022/10/01 10:26:54;;;;;;;;;;;;;;;16.19;100.00;100416.53;5074142;28;20249;-67
2022/10/01 10:29:33;;;;;;;;;;;;;;;16.00;100.00;100423.84;5072810;28;19924;-67
2022/10/01 10:32:02;;;;;;;;;;;;;;;15.98;100.00;100426.53;5071297;28;19913;-67
2022/10/01 10:34:30;;;;;;;;;;;;;;;16.30;100.00;100427.88;5073183;28;19913;-67
2022/10/01 10:36:57;;;;;;;;;;;;;;;16.22;100.00;100439.50;5072973;28;19919;-67
2022/10/01 10:39:24;;;;;;;;;;;;;;;16.22;100.00;100450.13;5073775;28;20429;-67
2022/10/01 10:41:50;;;;;;;;;;;;;;;16.39;100.00;100450.78;5073706;28;19956;-67
2022/10/01 10:44:20;;;;;;;;;;;;;;;16.67;100.00;100453.03;5077772;28;19912;-67
2022/10/01 10:46:46;;;;;;;;;;;;;;;16.96;100.00;100457.06;5074558;28;19952;-67
2022/10/01 10:49:18;;;;;;;;;;;;;;;17.05;100.00;100474.63;5073812;28;19916;-67
2022/10/01 10:51:52;;;;;;;;;;;;;;;17.12;100.00;100450.59;5077108;28;19919;-67
2022/10/01 10:54:28;;;;;;;;;;;;;;;17.22;100.00;100458.41;5077926;28;19958;-67
2022/10/01 10:56:55;;;;;;;;;;;;;;;17.05;100.00;100459.56;5077498;28;20013;-67
2022/10/01 10:59:20;;;;;;;;;;;;;;;17.00;100.00;100472.94;5072595;28;19966;-67
2022/10/01 11:01:46;;;;;;;;;;;;;;;16.77;100.00;100478.56;5072787;28;20371;-69
2022/10/01 11:04:20;;;;;;;;;;;;;;;17.01;100.00;100487.09;5073184;28;20020;-68
2022/10/01 11:07:00;;;;;;;;;;;;;;;17.36;100.00;100498.91;5073502;28;19920;-68
2022/10/01 11:09:28;;;;;;;;;;;;;;;17.07;100.00;100489.66;5071723;28;19928;-65
2022/10/01 11:11:58;;;;;;;;;;;;;;;16.71;100.00;100512.31;5071052;28;19916;-67
2022/10/01 11:14:42;;;;;;;;;;;;;;;16.38;100.00;100503.91;5071382;28;19912;-67
2022/10/01 11:17:26;;;;;;;;;;;;;;;16.31;100.00;100509.28;5070234;28;19920;-67
2022/10/01 11:20:14;;;;;;;;;;;;;;;16.30;100.00;100522.59;5072831;28;19995;-67
2022/10/01 11:23:04;;;;;;;;;;;;;;;16.18;100.00;100524.50;5063256;28;19912;-67
2022/10/01 11:25:29;;;;;;;;;;;;;;;16.40;100.00;100528.66;5072821;28;20292;-67
2022/10/01 11:28:13;;;;;;;;;;;;;;;16.46;100.00;100532.13;5071994;28;19923;-67
2022/10/01 11:30:46;;;;;;;;;;;;;;;16.89;100.00;100548.38;5067694;28;19948;-66
2022/10/01 11:33:14;;;;;;;;;;;;;;;16.93;100.00;100534.16;5070320;28;19912;-67
2022/10/01 11:35:46;;;;;;;;;;;;;;;16.88;100.00;100547.50;5054184;28;20375;-66
2022/10/01 11:38:23;;;;;;;;;;;;;;;16.98;100.00;100548.28;5071232;28;19917;-67
2022/10/01 11:40:53;;;;;;;;;;;;;;;16.92;100.00;100551.03;5069034;28;19918;-66
2022/10/01 11:43:21;;;;;;;;;;;;;;;16.74;100.00;100566.31;5070678;28;19926;-67
2022/10/01 11:45:48;;;;;;;;;;;;;;;16.73;100.00;100572.50;5072752;28;19912;-67
2022/10/01 11:48:34;;;;;;;;;;;;;;;16.93;100.00;100576.69;5074186;28;19919;-68
2022/10/01 11:51:04;;;;;;;;;;;;;;;17.33;100.00;100570.78;5038950;28;19939;-68
2022/10/01 11:53:36;;;;;;;;;;;;;;;17.43;98.45;100574.19;5072213;28;19969;-67
2022/10/01 11:58:54;;;;;;;;;;;;;;;17.17;99.95;100575.47;5069402;28;19919;-68
2022/10/01 12:01:22;;;;;;;;;;;;;;;17.03;100.00;100584.50;5070940;28;19923;-67
2022/10/01 12:03:53;;;;;;;;;;;;;;;16.98;100.00;100590.81;5062552;28;20353;-68
2022/10/01 12:06:42;;;;;;;;;;;;;;;16.73;100.00;100593.75;5072068;28;19912;-68
2022/10/01 12:09:10;;;;;;;;;;;;;;;16.81;100.00;100591.88;5072737;28;20003;-68
2022/10/01 12:11:41;;;;;;;;;;;;;;;17.10;100.00;100600.41;5072109;28;20245;-68
2022/10/01 12:14:11;;;;;;;;;;;;;;;17.28;100.00;100584.19;5070187;28;20002;-67
2022/10/01 12:16:45;;;;;;;;;;;;;;;17.30;100.00;100600.09;5070839;28;19908;-67
2022/10/01 12:19:20;;;;;;;;;;;;;;;17.70;98.21;100611.00;5049163;28;20425;-67
2022/10/01 12:22:02;;;;;;;;;;;;;;;17.67;98.52;100608.34;5072589;28;20376;-67
2022/10/01 12:24:30;;;;;;;;;;;;;;;17.22;98.29;100610.84;5071153;28;20371;-66
2022/10/01 12:27:01;;;;;;;;;;;;;;;17.19;96.61;100605.59;5070715;28;19908;-67
2022/10/01 12:29:52;;;;;;;;;;;;;;;17.39;93.89;100607.94;5070006;28;20038;-67
2022/10/01 12:32:33;;;;;;;;;;;;;;;17.25;93.91;100604.59;5068294;28;19965;-67
2022/10/01 12:35:06;;;;;;;;;;;;;;;17.10;96.44;100617.22;5050136;28;19909;-67
2022/10/01 12:37:50;;;;;;;;;;;;;;;17.23;96.59;100623.25;5066907;28;19919;-68
2022/10/01 12:40:25;;;;;;;;;;;;;;;17.91;94.20;100616.84;5069849;28;19943;-67
2022/10/01 12:43:05;;;;;;;;;;;;;;;18.02;90.50;100620.22;5072842;28;20362;-67